< < Back
Terminal Aerodrome Forecast


Current Version              Previous Versions:   1  2  3  4  5  6  7  8  9  

Terminal Aerodrome Forecast

041
FTUS42 KGSP 260526
TAFAND
TAF
KAND 260526Z 2606/2706 00000KT P6SM FEW200
      TEMPO 2610/2613 5SM BR SCT003
     FM261600 04004KT P6SM SCT050
     FM261800 08005KT P6SM BKN045
     FM262000 11005KT P6SM SCT045=

Latest METAR

975
SAUS70 KWBC 260600 RRI
MTRAND
METAR KAND 260556Z AUTO 00000KT 10SM CLR 24/22 A3012 RMK AO2 SLP188
T02390222 10300 20239 50000


USA.gov is the U.S. government's official web portal to all federal, state and local government web resources and services.